createdAt,value
2018-07-12T00:01:32.845Z,39.70
2018-07-12T00:04:00.141Z,34.70
2018-07-12T00:06:27.486Z,40.67
2018-07-12T00:08:54.788Z,40.83
2018-07-12T00:11:22.125Z,33.47
2018-07-12T00:13:49.471Z,37.60
2018-07-12T00:16:16.810Z,34.53
2018-07-12T00:18:44.129Z,32.27
2018-07-12T00:21:11.469Z,39.43
2018-07-12T00:23:38.777Z,40.40
2018-07-12T00:26:06.123Z,37.03
2018-07-12T00:28:33.424Z,37.10
2018-07-12T00:31:00.821Z,35.13
2018-07-12T00:33:28.129Z,36.37
2018-07-12T00:35:55.445Z,38.63
2018-07-12T00:38:22.805Z,49.37
2018-07-12T00:40:50.114Z,39.57
2018-07-12T00:43:17.450Z,35.00
2018-07-12T00:45:44.753Z,39.40
2018-07-12T00:48:12.089Z,41.63
2018-07-12T00:50:39.390Z,38.97
2018-07-12T00:53:06.721Z,42.10
2018-07-12T00:55:34.020Z,47.80
2018-07-12T00:58:01.356Z,45.33
2018-07-12T01:00:28.661Z,40.87
2018-07-12T01:02:55.996Z,39.80
2018-07-12T01:05:23.316Z,40.83
2018-07-12T01:07:50.721Z,51.17
2018-07-12T01:10:18.034Z,43.20
2018-07-12T01:12:45.377Z,40.97
2018-07-12T01:15:12.697Z,40.13
2018-07-12T01:17:40.036Z,36.80
2018-07-12T01:20:07.350Z,43.00
2018-07-12T01:22:34.689Z,40.70
2018-07-12T01:25:01.996Z,53.03
2018-07-12T01:27:29.357Z,41.03
2018-07-12T01:29:56.665Z,46.53
2018-07-12T01:32:23.965Z,39.40
2018-07-12T01:34:51.309Z,48.60
2018-07-12T01:37:18.610Z,55.83
2018-07-12T01:39:45.948Z,41.63
2018-07-12T01:42:13.249Z,46.20
2018-07-12T01:44:40.599Z,39.63
2018-07-12T01:47:07.909Z,47.67
2018-07-12T01:49:35.246Z,44.33
2018-07-12T01:52:02.569Z,45.73
2018-07-12T01:54:29.912Z,46.90
2018-07-12T01:56:57.210Z,49.53
2018-07-12T01:59:24.540Z,50.83
2018-07-12T02:01:51.845Z,45.20
2018-07-12T02:04:19.201Z,55.20
2018-07-12T02:06:46.550Z,45.73
2018-07-12T02:09:13.908Z,51.43
2018-07-12T02:11:41.217Z,49.43
2018-07-12T02:14:08.548Z,42.83
2018-07-12T02:16:35.848Z,45.47
2018-07-12T02:19:03.198Z,54.83
2018-07-12T02:21:30.518Z,53.33
2018-07-12T02:23:57.873Z,47.57
2018-07-12T02:26:25.189Z,46.00
2018-07-12T02:28:52.496Z,53.50
2018-07-12T02:31:19.838Z,54.73
2018-07-12T02:33:47.157Z,60.03
2018-07-12T02:36:14.485Z,56.60
2018-07-12T02:38:41.789Z,64.77
2018-07-12T02:41:09.126Z,59.40
2018-07-12T02:43:36.420Z,57.93
2018-07-12T02:46:03.770Z,70.50
2018-07-12T02:48:31.079Z,68.73
2018-07-12T02:50:58.430Z,83.40
2018-07-12T02:53:25.745Z,80.73
2018-07-12T02:55:53.085Z,81.10
2018-07-12T02:58:20.390Z,96.57
2018-07-12T03:00:47.726Z,84.30
2018-07-12T03:03:15.030Z,93.63
2018-07-12T03:05:42.369Z,92.97
2018-07-12T03:08:09.708Z,92.83
2018-07-12T03:10:37.113Z,85.47
2018-07-12T03:13:04.422Z,116.87
2018-07-12T03:15:31.749Z,99.87
2018-07-12T03:17:59.040Z,104.73
2018-07-12T03:20:26.337Z,103.27
2018-07-12T03:22:53.686Z,96.47
2018-07-12T03:25:20.994Z,103.77
2018-07-12T03:27:48.333Z,97.90
2018-07-12T03:30:15.636Z,103.23
2018-07-12T03:32:42.956Z,104.23
2018-07-12T03:35:10.261Z,101.20
2018-07-12T03:37:37.593Z,102.83
2018-07-12T03:40:04.901Z,106.80
2018-07-12T03:42:32.249Z,109.93
2018-07-12T03:44:59.577Z,102.57
2018-07-12T03:47:26.921Z,114.90
2018-07-12T03:49:54.237Z,109.13
2018-07-12T03:52:21.585Z,101.83
2018-07-12T03:54:48.876Z,101.20
2018-07-12T03:57:16.236Z,104.97
2018-07-12T03:59:43.557Z,87.43
2018-07-12T04:02:10.881Z,93.43
2018-07-12T04:04:38.197Z,65.83
2018-07-12T04:07:05.550Z,71.40
2018-07-12T04:09:32.853Z,64.37
2018-07-12T04:12:00.272Z,54.90
2018-07-12T04:14:27.564Z,54.57
2018-07-12T04:16:54.905Z,49.40
2018-07-12T04:19:22.260Z,46.00
2018-07-12T04:21:49.628Z,50.13
2018-07-12T04:24:17.001Z,39.77
2018-07-12T04:26:44.310Z,44.43
2018-07-12T04:29:11.635Z,40.00
2018-07-12T04:31:38.953Z,39.90
2018-07-12T04:34:06.369Z,44.70
2018-07-12T04:36:33.674Z,35.23
2018-07-12T04:39:01.005Z,44.27
2018-07-12T04:41:28.309Z,53.63
2018-07-12T04:43:55.650Z,31.83
2018-07-12T04:46:23.019Z,36.23
2018-07-12T04:48:50.411Z,26.20
2018-07-12T04:51:17.746Z,33.53
2018-07-12T04:53:45.456Z,26.20
2018-07-12T04:56:13.048Z,27.63
2018-07-12T04:58:40.384Z,24.83
2018-07-12T05:01:07.741Z,30.23
2018-07-12T05:03:35.076Z,28.47
2018-07-12T05:06:02.393Z,31.30
2018-07-12T05:08:29.750Z,29.83
2018-07-12T05:10:57.073Z,28.60
2018-07-12T05:13:25.915Z,27.30
2018-07-12T05:15:53.323Z,28.03
2018-07-12T05:18:20.648Z,27.07
2018-07-12T05:20:48.062Z,28.90
2018-07-12T05:23:15.383Z,27.33
2018-07-12T05:25:43.225Z,33.03
2018-07-12T05:28:10.610Z,28.73
2018-07-12T05:30:37.968Z,35.63
2018-07-12T05:33:05.277Z,32.97
2018-07-12T05:35:33.836Z,31.50
2018-07-12T05:38:02.305Z,30.73
2018-07-12T05:40:30.796Z,23.77
2018-07-12T05:42:59.270Z,20.83
2018-07-12T05:45:27.785Z,23.50
2018-07-12T05:47:56.248Z,29.17
2018-07-12T05:50:24.839Z,28.77
2018-07-12T05:52:53.612Z,28.93
2018-07-12T05:55:22.117Z,31.37
2018-07-12T05:57:50.570Z,28.13
2018-07-12T06:00:19.093Z,33.60
2018-07-12T06:02:47.561Z,39.90
2018-07-12T06:05:16.118Z,34.90
2018-07-12T06:07:44.594Z,29.90
2018-07-12T06:10:13.065Z,26.83
2018-07-12T06:12:41.607Z,24.77
2018-07-12T06:15:10.069Z,30.13
2018-07-12T06:17:38.718Z,20.70
2018-07-12T06:20:08.615Z,24.43
2018-07-12T06:22:37.129Z,25.47
2018-07-12T06:25:05.925Z,32.90
2018-07-12T06:27:34.473Z,23.30
2018-07-12T06:30:03.045Z,28.63
2018-07-12T06:32:31.484Z,20.63
2018-07-12T06:34:59.961Z,27.03
2018-07-12T06:37:28.450Z,25.43
2018-07-12T06:39:56.943Z,26.03
2018-07-12T06:42:25.452Z,29.40
2018-07-12T06:44:53.901Z,26.10
2018-07-12T06:47:22.394Z,30.60
2018-07-12T06:49:50.903Z,31.43
2018-07-12T06:52:19.424Z,44.53
2018-07-12T06:54:47.878Z,46.47
2018-07-12T06:57:16.372Z,43.90
2018-07-12T06:59:44.862Z,47.30
2018-07-12T07:02:13.345Z,52.97
2018-07-12T07:04:41.801Z,52.20
2018-07-12T07:07:11.009Z,45.40
2018-07-12T07:09:39.464Z,52.40
2018-07-12T07:12:08.068Z,48.10
2018-07-12T07:14:36.520Z,49.27
2018-07-12T07:17:05.009Z,47.60
2018-07-12T07:19:33.528Z,49.37
2018-07-12T07:22:02.037Z,48.40
2018-07-12T07:24:30.537Z,46.73
2018-07-12T07:26:59.090Z,52.20
2018-07-12T07:29:27.557Z,64.13
2018-07-12T07:31:56.010Z,65.80
2018-07-12T07:34:24.513Z,69.23
2018-07-12T07:36:52.994Z,71.43
2018-07-12T07:39:21.175Z,72.20
2018-07-12T07:41:49.685Z,68.90
2018-07-12T07:44:18.179Z,68.97
2018-07-12T07:46:46.656Z,80.03
2018-07-12T07:49:14.861Z,66.80
2018-07-12T07:51:43.461Z,69.70
2018-07-12T07:54:11.976Z,69.97
2018-07-12T07:56:40.475Z,63.30
2018-07-12T07:59:09.002Z,71.40
2018-07-12T08:01:37.481Z,65.97
2018-07-12T08:04:06.022Z,56.77
2018-07-12T08:06:34.509Z,62.37
2018-07-12T08:09:03.985Z,61.83
2018-07-12T08:11:32.549Z,56.77
2018-07-12T08:14:01.045Z,48.50
2018-07-12T08:16:29.545Z,56.90
2018-07-12T08:18:58.001Z,57.30
2018-07-12T08:21:26.492Z,52.20
2018-07-12T08:23:54.945Z,53.30
2018-07-12T08:26:23.521Z,52.47
2018-07-12T08:28:51.980Z,53.10
2018-07-12T08:31:20.266Z,47.40
2018-07-12T08:33:48.705Z,47.20
2018-07-12T08:36:17.224Z,45.30
2018-07-12T08:38:45.694Z,47.40
2018-07-12T08:41:14.205Z,46.73
2018-07-12T08:43:42.661Z,51.13
2018-07-12T08:46:11.189Z,50.60
2018-07-12T08:48:46.108Z,47.97
2018-07-12T08:51:14.645Z,47.07
2018-07-12T08:53:43.099Z,47.40
2018-07-12T08:56:11.595Z,52.43
2018-07-12T08:58:40.153Z,55.33
2018-07-12T09:01:08.657Z,50.87
2018-07-12T09:03:37.101Z,49.60
2018-07-12T09:06:05.609Z,45.40
2018-07-12T09:08:34.104Z,44.97
2018-07-12T09:11:02.560Z,40.40
2018-07-12T09:13:31.037Z,45.37
2018-07-12T09:15:59.541Z,38.87
2018-07-12T09:18:28.041Z,44.03
2018-07-12T09:20:56.533Z,46.23
2018-07-12T09:23:25.033Z,47.80
2018-07-12T09:25:53.535Z,44.90
2018-07-12T09:28:22.066Z,45.23
2018-07-12T09:30:50.602Z,41.73
2018-07-12T09:33:19.089Z,46.87
2018-07-12T09:35:47.571Z,44.27
2018-07-12T09:38:27.505Z,46.90
2018-07-12T09:40:55.954Z,49.20
2018-07-12T09:43:24.460Z,52.57
2018-07-12T09:45:52.938Z,57.83
2018-07-12T09:48:21.422Z,56.73
2018-07-12T09:50:49.917Z,53.70
2018-07-12T09:53:18.433Z,60.60
2018-07-12T09:55:46.910Z,46.70
2018-07-12T09:58:25.384Z,45.93
2018-07-12T10:00:59.206Z,41.43
2018-07-12T10:03:33.021Z,35.70
2018-07-12T10:06:01.562Z,39.97
2018-07-12T10:08:35.425Z,37.40
2018-07-12T10:11:07.013Z,29.27
2018-07-12T10:13:52.657Z,33.33
2018-07-12T10:16:26.253Z,39.90
2018-07-12T10:18:54.787Z,43.67
2018-07-12T10:21:23.301Z,38.33
2018-07-12T10:23:51.840Z,37.17
2018-07-12T10:26:20.328Z,33.03
2018-07-12T10:28:48.883Z,34.40
2018-07-12T10:31:17.354Z,35.43
2018-07-12T10:33:45.861Z,38.47
2018-07-12T10:36:14.333Z,34.10
2018-07-12T10:38:42.793Z,36.10
2018-07-12T10:41:11.337Z,36.30
2018-07-12T10:43:39.800Z,40.00
2018-07-12T10:46:08.304Z,41.13
2018-07-12T10:48:36.777Z,35.53
2018-07-12T10:51:05.460Z,32.80
2018-07-12T10:53:33.959Z,33.30
2018-07-12T10:56:02.465Z,28.87
2018-07-12T10:58:30.954Z,30.80
2018-07-12T11:00:59.495Z,28.73
2018-07-12T11:03:27.970Z,24.60
2018-07-12T11:05:56.466Z,27.70
2018-07-12T11:08:24.992Z,29.40
2018-07-12T11:10:53.514Z,16.30
2018-07-12T11:13:48.961Z,23.43
2018-07-12T11:16:17.505Z,25.70
2018-07-12T11:18:45.985Z,26.20
2018-07-12T11:21:15.075Z,27.70
2018-07-12T11:23:43.761Z,21.77
2018-07-12T11:26:12.801Z,29.67
2018-07-12T11:28:41.715Z,21.10
2018-07-12T11:31:10.217Z,21.50
2018-07-12T11:33:40.124Z,24.13
2018-07-12T11:36:08.921Z,22.83
2018-07-12T11:38:38.017Z,23.17
2018-07-12T11:41:13.381Z,24.60
2018-07-12T11:43:41.951Z,24.10
2018-07-12T11:46:11.585Z,29.70
2018-07-12T11:48:41.104Z,28.07
2018-07-12T11:51:09.633Z,25.93
2018-07-12T11:53:38.209Z,24.80
2018-07-12T11:56:06.868Z,23.47
2018-07-12T11:58:35.361Z,21.60
2018-07-12T12:01:03.901Z,31.10
2018-07-12T12:03:32.688Z,22.77
2018-07-12T12:06:01.179Z,22.20
2018-07-12T12:08:29.694Z,24.13
2018-07-12T12:10:58.190Z,21.80
2018-07-12T12:13:26.688Z,20.03
2018-07-12T12:15:55.176Z,20.97
2018-07-12T12:18:23.684Z,24.20
2018-07-12T12:20:52.151Z,22.27
2018-07-12T12:23:20.612Z,20.77
2018-07-12T12:25:49.121Z,22.30
2018-07-12T12:28:17.580Z,22.90
2018-07-12T12:30:46.170Z,21.83
2018-07-12T12:33:14.849Z,21.00
2018-07-12T12:35:43.305Z,21.23
2018-07-12T12:38:11.744Z,21.33
2018-07-12T12:40:40.268Z,20.77
2018-07-12T12:43:08.741Z,21.67
2018-07-12T12:45:37.273Z,27.50
2018-07-12T12:48:05.832Z,26.93
2018-07-12T12:50:34.321Z,24.30
2018-07-12T12:53:02.820Z,23.87
2018-07-12T12:55:31.297Z,29.83
2018-07-12T12:57:59.816Z,21.00
2018-07-12T13:00:28.318Z,21.63
2018-07-12T13:02:56.771Z,25.00
2018-07-12T13:05:25.269Z,25.80
2018-07-12T13:07:53.725Z,18.67
2018-07-12T13:10:22.241Z,19.43
2018-07-12T13:12:50.697Z,32.50
2018-07-12T13:15:19.196Z,26.70
2018-07-12T13:17:47.665Z,28.87
2018-07-12T13:20:16.191Z,25.50
2018-07-12T13:22:44.661Z,19.83
2018-07-12T13:25:13.181Z,24.03
2018-07-12T13:27:41.755Z,21.23
2018-07-12T13:30:10.277Z,20.90
2018-07-12T13:32:38.797Z,23.13
2018-07-12T13:35:07.541Z,22.00
2018-07-12T13:37:36.196Z,26.43
2018-07-12T13:40:04.741Z,24.87
2018-07-12T13:42:33.257Z,19.17
2018-07-12T13:45:01.709Z,14.80
2018-07-12T13:47:29.884Z,14.93
2018-07-12T13:49:58.538Z,16.83
2018-07-12T13:52:27.125Z,21.10
2018-07-12T13:54:55.600Z,22.23
2018-07-12T13:57:24.107Z,20.90
2018-07-12T13:59:52.570Z,19.00
2018-07-12T14:02:21.083Z,17.87
2018-07-12T14:04:49.566Z,18.00
2018-07-12T14:07:17.760Z,21.30
2018-07-12T14:09:46.217Z,21.50
2018-07-12T14:12:14.729Z,18.67
2018-07-12T14:14:43.229Z,19.53
2018-07-12T14:17:11.745Z,19.40
2018-07-12T14:19:40.204Z,25.80
2018-07-12T14:22:08.765Z,19.40
2018-07-12T14:24:37.229Z,20.20
2018-07-12T14:27:05.793Z,25.43
2018-07-12T14:29:34.243Z,25.33
2018-07-12T14:32:02.778Z,22.77
2018-07-12T14:34:31.304Z,27.80
2018-07-12T14:36:59.777Z,24.43
2018-07-12T14:39:28.322Z,21.63
2018-07-12T14:41:56.801Z,18.67
2018-07-12T14:44:25.333Z,20.27
2018-07-12T14:46:53.850Z,18.03
2018-07-12T14:49:22.353Z,20.67
2018-07-12T14:51:50.897Z,21.70
2018-07-12T14:54:19.451Z,18.53
2018-07-12T14:56:47.928Z,17.50
2018-07-12T14:59:16.429Z,16.50
2018-07-12T15:01:44.948Z,18.67
2018-07-12T15:04:13.445Z,15.93
2018-07-12T15:06:41.912Z,16.90
2018-07-12T15:09:10.634Z,16.73
2018-07-12T15:11:38.989Z,18.80
2018-07-12T15:14:07.809Z,18.00
2018-07-12T15:16:36.342Z,20.00
2018-07-12T15:19:05.114Z,17.50
2018-07-12T15:21:33.626Z,18.67
2018-07-12T15:24:02.085Z,17.93
2018-07-12T15:26:30.585Z,20.60
2018-07-12T15:28:59.118Z,17.20
2018-07-12T15:31:27.707Z,16.73
2018-07-12T15:33:56.148Z,21.47
2018-07-12T15:36:24.728Z,16.10
2018-07-12T15:38:53.276Z,16.83
2018-07-12T15:41:21.540Z,19.23
2018-07-12T15:43:50.033Z,20.67
2018-07-12T15:46:18.550Z,19.67
2018-07-12T15:48:47.054Z,20.10
2018-07-12T15:51:15.613Z,26.20
2018-07-12T15:53:44.081Z,25.40
2018-07-12T15:56:12.593Z,18.40
2018-07-12T15:58:41.077Z,20.77
2018-07-12T16:01:09.593Z,23.27
2018-07-12T16:03:38.120Z,19.73
2018-07-12T16:06:06.732Z,17.90
2018-07-12T16:08:35.248Z,19.47
2018-07-12T16:11:03.849Z,19.17
2018-07-12T16:13:32.340Z,19.00
2018-07-12T16:16:00.893Z,19.30
2018-07-12T16:18:29.367Z,22.67
2018-07-12T16:20:57.836Z,22.53
2018-07-12T16:23:26.377Z,19.00
2018-07-12T16:25:54.845Z,16.40
2018-07-12T16:28:23.333Z,14.77
2018-07-12T16:30:51.812Z,16.10
2018-07-12T16:33:20.332Z,15.43
2018-07-12T16:35:48.881Z,15.73
2018-07-12T16:38:17.410Z,22.30
2018-07-12T16:40:45.865Z,15.50
2018-07-12T16:43:14.424Z,16.30
2018-07-12T16:45:42.880Z,16.90
2018-07-12T16:48:11.389Z,14.90
2018-07-12T16:50:39.865Z,13.07
2018-07-12T16:53:08.401Z,11.67
2018-07-12T16:55:36.857Z,13.00
2018-07-12T16:58:05.395Z,13.87
2018-07-12T17:00:33.910Z,12.53
2018-07-12T17:03:02.483Z,15.63
2018-07-12T17:05:31.048Z,14.27
2018-07-12T17:07:59.646Z,12.67
2018-07-12T17:10:28.180Z,18.50
2018-07-12T17:12:56.837Z,19.03
2018-07-12T17:15:25.337Z,16.23
2018-07-12T17:17:53.854Z,13.60
2018-07-12T17:20:22.407Z,17.50
2018-07-12T17:22:50.910Z,15.30
2018-07-12T17:25:27.534Z,13.83
2018-07-12T17:27:55.801Z,14.80
2018-07-12T17:30:24.339Z,18.77
2018-07-12T17:32:52.861Z,16.40
2018-07-12T17:35:21.384Z,12.33
2018-07-12T17:37:49.861Z,14.60
2018-07-12T17:40:18.388Z,15.67
2018-07-12T17:42:46.865Z,12.40
2018-07-12T17:45:16.527Z,24.77
2018-07-12T17:47:45.111Z,11.97
2018-07-12T17:50:13.649Z,20.67
2018-07-12T17:52:42.169Z,14.00
2018-07-12T17:55:10.667Z,15.90
2018-07-12T17:57:39.237Z,16.27
2018-07-12T18:00:07.807Z,13.27
2018-07-12T18:02:36.276Z,18.30
2018-07-12T18:05:05.042Z,16.70
2018-07-12T18:07:33.888Z,13.53
2018-07-12T18:10:02.401Z,21.00
2018-07-12T18:12:30.903Z,13.73
2018-07-12T18:14:59.388Z,14.73
2018-07-12T18:17:27.910Z,14.03
2018-07-12T18:19:56.402Z,13.73
2018-07-12T18:22:24.917Z,12.20
2018-07-12T18:24:53.393Z,14.23
2018-07-12T18:27:21.886Z,12.70
2018-07-12T18:29:50.416Z,13.93
2018-07-12T18:32:18.952Z,18.10
2018-07-12T18:34:47.425Z,15.70
2018-07-12T18:37:15.936Z,18.57
2018-07-12T18:39:44.417Z,14.10
2018-07-12T18:42:12.924Z,14.60
2018-07-12T18:44:41.396Z,12.67
2018-07-12T18:47:10.012Z,15.70
2018-07-12T18:49:38.573Z,16.67
2018-07-12T18:52:07.475Z,14.63
2018-07-12T18:54:35.957Z,17.63
2018-07-12T18:57:04.647Z,15.00
2018-07-12T18:59:33.057Z,19.83
2018-07-12T19:02:01.589Z,13.27
2018-07-12T19:04:30.097Z,17.50
2018-07-12T19:06:58.568Z,16.27
2018-07-12T19:09:27.080Z,14.93
2018-07-12T19:11:55.227Z,14.43
2018-07-12T19:14:23.737Z,13.23
2018-07-12T19:16:52.257Z,18.57
2018-07-12T19:19:20.792Z,15.43
2018-07-12T19:21:49.266Z,13.73
2018-07-12T19:24:17.836Z,17.20
2018-07-12T19:26:46.555Z,16.63
2018-07-12T19:29:15.063Z,13.53
2018-07-12T19:31:43.690Z,9.30
2018-07-12T19:34:12.924Z,11.70
2018-07-12T19:36:41.425Z,9.63
2018-07-12T19:39:09.959Z,9.57
2018-07-12T19:41:38.523Z,9.77
2018-07-12T19:44:07.213Z,7.30
2018-07-12T19:46:35.708Z,12.83
2018-07-12T19:49:04.250Z,9.17
2018-07-12T19:51:32.778Z,11.63
2018-07-12T19:54:01.274Z,10.20
2018-07-12T19:56:29.748Z,9.10
2018-07-12T19:59:00.473Z,7.70
2018-07-12T20:01:29.443Z,5.97
2018-07-12T20:04:00.146Z,7.03
2018-07-12T20:06:28.682Z,6.60
2018-07-12T20:08:58.378Z,12.30
2018-07-12T20:11:27.050Z,7.30
2018-07-12T20:13:55.661Z,5.50
2018-07-12T20:16:24.612Z,6.43
2018-07-12T20:18:53.116Z,10.57
2018-07-12T20:21:21.624Z,8.80
2018-07-12T20:23:50.100Z,4.70
2018-07-12T20:26:18.627Z,10.20
2018-07-12T20:28:47.141Z,6.17
2018-07-12T20:31:15.666Z,8.63
2018-07-12T20:33:44.239Z,7.13
2018-07-12T20:36:12.824Z,5.30
2018-07-12T20:38:41.431Z,11.03
2018-07-12T20:41:09.960Z,6.63
2018-07-12T20:43:38.461Z,9.70
2018-07-12T20:46:06.982Z,6.23
2018-07-12T20:48:35.465Z,5.67
2018-07-12T20:51:03.994Z,11.40
2018-07-12T20:53:33.462Z,10.60
2018-07-12T20:56:01.998Z,6.13
2018-07-12T20:58:30.459Z,6.73
2018-07-12T21:00:58.951Z,5.60
2018-07-12T21:03:27.428Z,7.00
2018-07-12T21:05:55.868Z,5.67
2018-07-12T21:08:24.401Z,5.30
2018-07-12T21:10:52.884Z,5.20
2018-07-12T21:13:21.393Z,7.70
2018-07-12T21:15:49.839Z,7.77
2018-07-12T21:18:18.344Z,10.93
2018-07-12T21:20:46.484Z,8.70
2018-07-12T21:23:14.986Z,13.20
2018-07-12T21:25:43.469Z,8.10
2018-07-12T21:28:11.958Z,9.13
2018-07-12T21:30:40.425Z,8.30
2018-07-12T21:33:08.939Z,9.30
2018-07-12T21:35:37.461Z,7.80
2018-07-12T21:38:06.008Z,6.70
2018-07-12T21:40:34.482Z,6.80
2018-07-12T21:43:03.017Z,11.83
2018-07-12T21:45:31.504Z,7.73
2018-07-12T21:48:00.040Z,6.70
2018-07-12T21:50:28.521Z,8.30
2018-07-12T21:52:57.025Z,7.40
2018-07-12T21:55:25.508Z,14.07
2018-07-12T21:57:53.961Z,6.83
2018-07-12T22:00:22.437Z,7.93
2018-07-12T22:02:50.960Z,6.40
2018-07-12T22:05:19.418Z,14.53
2018-07-12T22:08:27.674Z,8.60
2018-07-12T22:11:04.065Z,9.30
2018-07-12T22:13:33.753Z,8.73
2018-07-12T22:16:02.388Z,10.07
2018-07-12T22:18:30.962Z,8.90
2018-07-12T22:20:59.507Z,10.40
2018-07-12T22:23:27.978Z,9.10
2018-07-12T22:25:56.489Z,8.73
2018-07-12T22:28:24.940Z,8.20
2018-07-12T22:30:53.417Z,7.73
2018-07-12T22:33:21.904Z,7.97
2018-07-12T22:35:50.394Z,10.60
2018-07-12T22:38:18.848Z,9.57
2018-07-12T22:40:47.337Z,13.03
2018-07-12T22:43:15.801Z,10.23
2018-07-12T22:45:44.309Z,16.27
2018-07-12T22:48:12.892Z,10.40
2018-07-12T22:50:41.309Z,12.80
2018-07-12T22:53:09.806Z,16.40
2018-07-12T22:55:38.316Z,13.47
2018-07-12T22:58:06.812Z,11.10
2018-07-12T23:00:35.368Z,9.80
2018-07-12T23:03:03.931Z,10.47
2018-07-12T23:05:32.393Z,15.73
2018-07-12T23:08:00.896Z,10.27
2018-07-12T23:10:29.361Z,13.80
2018-07-12T23:12:57.857Z,14.03
2018-07-12T23:15:26.346Z,10.03
2018-07-12T23:17:54.838Z,12.80
2018-07-12T23:20:23.317Z,12.20
2018-07-12T23:22:51.832Z,16.37
2018-07-12T23:25:20.304Z,11.53
2018-07-12T23:27:48.785Z,18.87
2018-07-12T23:30:17.252Z,16.27
2018-07-12T23:32:45.749Z,18.40
2018-07-12T23:35:14.229Z,13.27
2018-07-12T23:37:42.726Z,12.37
2018-07-12T23:40:11.212Z,12.23
2018-07-12T23:42:39.689Z,13.60
2018-07-12T23:45:08.169Z,14.33
2018-07-12T23:47:36.732Z,14.93
2018-07-12T23:50:05.237Z,11.20
2018-07-12T23:52:33.798Z,15.80
2018-07-12T23:55:02.298Z,14.23
2018-07-12T23:57:30.774Z,14.93
2018-07-12T23:59:59.265Z,13.90
